sensor_id;sensor_type;location;lat;lon;timestamp;P1;durP1;ratioP1;P2;durP2;ratioP2
68188;SDS011;55008;47.514;19.218;2022-07-03T00:00:47;12.35;;;6.70;;
68188;SDS011;55008;47.514;19.218;2022-07-03T00:03:16;15.07;;;7.32;;
68188;SDS011;55008;47.514;19.218;2022-07-03T00:05:46;12.48;;;7.05;;
68188;SDS011;55008;47.514;19.218;2022-07-03T00:08:16;14.77;;;6.63;;
68188;SDS011;55008;47.514;19.218;2022-07-03T00:10:46;13.70;;;7.30;;
68188;SDS011;55008;47.514;19.218;2022-07-03T00:13:20;12.70;;;7.00;;
68188;SDS011;55008;47.514;19.218;2022-07-03T00:15:48;14.95;;;7.13;;
68188;SDS011;55008;47.514;19.218;2022-07-03T00:18:17;15.05;;;7.05;;
68188;SDS011;55008;47.514;19.218;2022-07-03T00:20:48;12.88;;;6.88;;
68188;SDS011;55008;47.514;19.218;2022-07-03T00:23:18;13.82;;;6.88;;
68188;SDS011;55008;47.514;19.218;2022-07-03T00:25:51;14.15;;;7.00;;
68188;SDS011;55008;47.514;19.218;2022-07-03T00:28:22;14.88;;;7.38;;
68188;SDS011;55008;47.514;19.218;2022-07-03T00:35:55;13.52;;;7.63;;
68188;SDS011;55008;47.514;19.218;2022-07-03T00:38:23;13.30;;;7.18;;
68188;SDS011;55008;47.514;19.218;2022-07-03T00:40:52;12.85;;;7.28;;
68188;SDS011;55008;47.514;19.218;2022-07-03T00:43:29;14.43;;;7.50;;
68188;SDS011;55008;47.514;19.218;2022-07-03T00:46:03;13.52;;;7.28;;
68188;SDS011;55008;47.514;19.218;2022-07-03T00:48:37;12.05;;;7.30;;
68188;SDS011;55008;47.514;19.218;2022-07-03T00:51:06;15.57;;;7.07;;
68188;SDS011;55008;47.514;19.218;2022-07-03T00:53:36;12.80;;;7.20;;
68188;SDS011;55008;47.514;19.218;2022-07-03T00:56:05;13.50;;;7.40;;
68188;SDS011;55008;47.514;19.218;2022-07-03T00:58:37;13.43;;;7.40;;
68188;SDS011;55008;47.514;19.218;2022-07-03T01:01:09;11.82;;;6.93;;
68188;SDS011;55008;47.514;19.218;2022-07-03T01:03:40;13.48;;;7.28;;
68188;SDS011;55008;47.514;19.218;2022-07-03T01:06:13;14.30;;;7.65;;
68188;SDS011;55008;47.514;19.218;2022-07-03T01:08:45;15.65;;;7.50;;
68188;SDS011;55008;47.514;19.218;2022-07-03T01:11:20;13.38;;;7.38;;
68188;SDS011;55008;47.514;19.218;2022-07-03T01:13:55;14.40;;;7.53;;
68188;SDS011;55008;47.514;19.218;2022-07-03T01:16:34;14.60;;;7.38;;
68188;SDS011;55008;47.514;19.218;2022-07-03T01:19:10;14.25;;;7.78;;
68188;SDS011;55008;47.514;19.218;2022-07-03T01:21:50;14.13;;;7.85;;
68188;SDS011;55008;47.514;19.218;2022-07-03T01:24:36;15.00;;;7.70;;
68188;SDS011;55008;47.514;19.218;2022-07-03T01:27:16;15.15;;;8.18;;
68188;SDS011;55008;47.514;19.218;2022-07-03T01:29:56;15.98;;;7.90;;
68188;SDS011;55008;47.514;19.218;2022-07-03T01:32:38;15.50;;;7.85;;
68188;SDS011;55008;47.514;19.218;2022-07-03T01:37:41;14.70;;;8.13;;
68188;SDS011;55008;47.514;19.218;2022-07-03T01:40:11;14.57;;;7.50;;
68188;SDS011;55008;47.514;19.218;2022-07-03T01:42:44;14.20;;;8.00;;
68188;SDS011;55008;47.514;19.218;2022-07-03T01:45:13;13.85;;;7.95;;
68188;SDS011;55008;47.514;19.218;2022-07-03T01:47:45;17.48;;;8.25;;
68188;SDS011;55008;47.514;19.218;2022-07-03T01:50:14;14.45;;;8.13;;
68188;SDS011;55008;47.514;19.218;2022-07-03T01:52:45;15.32;;;8.40;;
68188;SDS011;55008;47.514;19.218;2022-07-03T01:55:17;14.82;;;8.27;;
68188;SDS011;55008;47.514;19.218;2022-07-03T01:57:49;15.85;;;8.90;;
68188;SDS011;55008;47.514;19.218;2022-07-03T02:02:51;13.68;;;7.93;;
68188;SDS011;55008;47.514;19.218;2022-07-03T02:05:32;18.08;;;8.65;;
68188;SDS011;55008;47.514;19.218;2022-07-03T02:11:09;16.25;;;8.90;;
68188;SDS011;55008;47.514;19.218;2022-07-03T02:16:35;16.63;;;8.80;;
68188;SDS011;55008;47.514;19.218;2022-07-03T02:19:22;16.15;;;8.50;;
68188;SDS011;55008;47.514;19.218;2022-07-03T02:22:04;17.83;;;8.80;;
68188;SDS011;55008;47.514;19.218;2022-07-03T02:24:37;16.05;;;8.82;;
68188;SDS011;55008;47.514;19.218;2022-07-03T02:27:12;17.80;;;9.02;;
68188;SDS011;55008;47.514;19.218;2022-07-03T02:29:51;16.25;;;8.43;;
68188;SDS011;55008;47.514;19.218;2022-07-03T02:32:26;14.75;;;8.65;;
68188;SDS011;55008;47.514;19.218;2022-07-03T02:35:02;14.88;;;8.57;;
68188;SDS011;55008;47.514;19.218;2022-07-03T02:37:37;15.23;;;9.10;;
68188;SDS011;55008;47.514;19.218;2022-07-03T02:40:15;16.00;;;8.73;;
68188;SDS011;55008;47.514;19.218;2022-07-03T02:42:51;14.63;;;8.90;;
68188;SDS011;55008;47.514;19.218;2022-07-03T02:45:29;20.48;;;9.30;;
68188;SDS011;55008;47.514;19.218;2022-07-03T02:48:08;15.98;;;8.82;;
68188;SDS011;55008;47.514;19.218;2022-07-03T02:50:45;17.88;;;9.32;;
68188;SDS011;55008;47.514;19.218;2022-07-03T02:53:20;15.02;;;9.10;;
68188;SDS011;55008;47.514;19.218;2022-07-03T02:55:55;14.98;;;8.52;;
68188;SDS011;55008;47.514;19.218;2022-07-03T02:58:58;14.35;;;8.70;;
68188;SDS011;55008;47.514;19.218;2022-07-03T03:01:41;13.77;;;8.82;;
68188;SDS011;55008;47.514;19.218;2022-07-03T03:04:19;17.80;;;9.25;;
68188;SDS011;55008;47.514;19.218;2022-07-03T03:06:55;16.40;;;9.32;;
68188;SDS011;55008;47.514;19.218;2022-07-03T03:09:40;15.75;;;9.23;;
68188;SDS011;55008;47.514;19.218;2022-07-03T03:12:13;16.50;;;9.20;;
68188;SDS011;55008;47.514;19.218;2022-07-03T03:14:49;15.82;;;8.75;;
68188;SDS011;55008;47.514;19.218;2022-07-03T03:17:34;16.95;;;9.00;;
68188;SDS011;55008;47.514;19.218;2022-07-03T03:20:10;15.18;;;9.38;;
68188;SDS011;55008;47.514;19.218;2022-07-03T03:22:51;17.02;;;9.25;;
68188;SDS011;55008;47.514;19.218;2022-07-03T03:25:32;19.27;;;8.95;;
68188;SDS011;55008;47.514;19.218;2022-07-03T03:28:01;18.45;;;9.48;;
68188;SDS011;55008;47.514;19.218;2022-07-03T03:30:30;17.63;;;9.35;;
68188;SDS011;55008;47.514;19.218;2022-07-03T03:33:10;16.48;;;9.05;;
68188;SDS011;55008;47.514;19.218;2022-07-03T03:35:39;17.52;;;9.57;;
68188;SDS011;55008;47.514;19.218;2022-07-03T03:38:12;15.73;;;8.85;;
68188;SDS011;55008;47.514;19.218;2022-07-03T03:40:42;22.92;;;9.60;;
68188;SDS011;55008;47.514;19.218;2022-07-03T03:43:18;16.58;;;9.02;;
68188;SDS011;55008;47.514;19.218;2022-07-03T03:45:48;15.35;;;8.98;;
68188;SDS011;55008;47.514;19.218;2022-07-03T03:48:19;14.18;;;8.75;;
68188;SDS011;55008;47.514;19.218;2022-07-03T03:50:47;17.85;;;9.52;;
68188;SDS011;55008;47.514;19.218;2022-07-03T03:53:18;18.23;;;9.30;;
68188;SDS011;55008;47.514;19.218;2022-07-03T03:55:58;16.40;;;9.02;;
68188;SDS011;55008;47.514;19.218;2022-07-03T03:58:32;18.05;;;8.65;;
68188;SDS011;55008;47.514;19.218;2022-07-03T04:01:03;15.32;;;9.38;;
68188;SDS011;55008;47.514;19.218;2022-07-03T04:03:37;18.55;;;9.45;;
68188;SDS011;55008;47.514;19.218;2022-07-03T04:06:06;15.30;;;9.07;;
68188;SDS011;55008;47.514;19.218;2022-07-03T04:08:36;15.40;;;8.50;;
68188;SDS011;55008;47.514;19.218;2022-07-03T04:11:07;16.05;;;9.60;;
68188;SDS011;55008;47.514;19.218;2022-07-03T04:13:35;19.67;;;9.70;;
68188;SDS011;55008;47.514;19.218;2022-07-03T04:16:05;15.68;;;9.25;;
68188;SDS011;55008;47.514;19.218;2022-07-03T04:18:33;15.75;;;8.55;;
68188;SDS011;55008;47.514;19.218;2022-07-03T04:21:05;15.23;;;8.68;;
68188;SDS011;55008;47.514;19.218;2022-07-03T04:23:34;16.88;;;9.30;;
68188;SDS011;55008;47.514;19.218;2022-07-03T04:26:04;14.38;;;8.77;;
68188;SDS011;55008;47.514;19.218;2022-07-03T04:28:43;14.82;;;9.05;;
68188;SDS011;55008;47.514;19.218;2022-07-03T04:31:16;16.65;;;8.70;;
68188;SDS011;55008;47.514;19.218;2022-07-03T04:33:45;17.02;;;8.65;;
68188;SDS011;55008;47.514;19.218;2022-07-03T04:36:17;14.75;;;8.55;;
68188;SDS011;55008;47.514;19.218;2022-07-03T04:38:46;15.68;;;8.50;;
68188;SDS011;55008;47.514;19.218;2022-07-03T04:41:15;15.13;;;8.70;;
68188;SDS011;55008;47.514;19.218;2022-07-03T04:43:46;15.00;;;8.63;;
68188;SDS011;55008;47.514;19.218;2022-07-03T04:46:14;16.48;;;8.48;;
68188;SDS011;55008;47.514;19.218;2022-07-03T04:48:44;16.45;;;8.70;;
68188;SDS011;55008;47.514;19.218;2022-07-03T04:51:12;16.05;;;8.40;;
68188;SDS011;55008;47.514;19.218;2022-07-03T04:53:46;14.82;;;8.38;;
68188;SDS011;55008;47.514;19.218;2022-07-03T04:56:14;14.05;;;7.93;;
68188;SDS011;55008;47.514;19.218;2022-07-03T04:58:43;14.82;;;7.97;;
68188;SDS011;55008;47.514;19.218;2022-07-03T05:01:12;13.75;;;7.60;;
68188;SDS011;55008;47.514;19.218;2022-07-03T05:03:40;15.82;;;8.00;;
68188;SDS011;55008;47.514;19.218;2022-07-03T05:06:10;13.85;;;8.10;;
68188;SDS011;55008;47.514;19.218;2022-07-03T05:08:47;13.95;;;7.90;;
68188;SDS011;55008;47.514;19.218;2022-07-03T05:11:18;13.85;;;7.97;;
68188;SDS011;55008;47.514;19.218;2022-07-03T05:13:48;15.70;;;7.80;;
68188;SDS011;55008;47.514;19.218;2022-07-03T05:16:17;16.17;;;7.95;;
68188;SDS011;55008;47.514;19.218;2022-07-03T05:18:46;13.13;;;7.68;;
68188;SDS011;55008;47.514;19.218;2022-07-03T05:21:17;13.73;;;7.45;;
68188;SDS011;55008;47.514;19.218;2022-07-03T05:23:48;13.55;;;7.35;;
68188;SDS011;55008;47.514;19.218;2022-07-03T05:26:16;14.18;;;7.80;;
68188;SDS011;55008;47.514;19.218;2022-07-03T05:28:50;15.32;;;7.53;;
68188;SDS011;55008;47.514;19.218;2022-07-03T05:31:18;13.82;;;7.07;;
68188;SDS011;55008;47.514;19.218;2022-07-03T05:33:47;26.10;;;7.60;;
68188;SDS011;55008;47.514;19.218;2022-07-03T05:36:16;16.10;;;7.40;;
68188;SDS011;55008;47.514;19.218;2022-07-03T05:38:52;13.35;;;7.28;;
68188;SDS011;55008;47.514;19.218;2022-07-03T05:41:38;13.00;;;7.50;;
68188;SDS011;55008;47.514;19.218;2022-07-03T05:44:09;14.50;;;7.13;;
68188;SDS011;55008;47.514;19.218;2022-07-03T05:46:37;14.32;;;6.85;;
68188;SDS011;55008;47.514;19.218;2022-07-03T05:49:07;14.10;;;6.93;;
68188;SDS011;55008;47.514;19.218;2022-07-03T05:51:37;16.50;;;7.35;;
68188;SDS011;55008;47.514;19.218;2022-07-03T05:54:07;14.88;;;6.65;;
68188;SDS011;55008;47.514;19.218;2022-07-03T05:56:40;14.00;;;7.07;;
68188;SDS011;55008;47.514;19.218;2022-07-03T05:59:08;14.23;;;7.30;;
68188;SDS011;55008;47.514;19.218;2022-07-03T06:01:36;14.95;;;7.65;;
68188;SDS011;55008;47.514;19.218;2022-07-03T06:04:15;14.27;;;7.13;;
68188;SDS011;55008;47.514;19.218;2022-07-03T06:06:43;14.93;;;7.43;;
68188;SDS011;55008;47.514;19.218;2022-07-03T06:09:13;12.18;;;6.70;;
68188;SDS011;55008;47.514;19.218;2022-07-03T06:11:42;12.40;;;7.00;;
68188;SDS011;55008;47.514;19.218;2022-07-03T06:14:12;11.48;;;6.78;;
68188;SDS011;55008;47.514;19.218;2022-07-03T06:16:42;13.30;;;6.93;;
68188;SDS011;55008;47.514;19.218;2022-07-03T06:19:11;14.05;;;7.07;;
68188;SDS011;55008;47.514;19.218;2022-07-03T06:21:41;12.02;;;6.55;;
68188;SDS011;55008;47.514;19.218;2022-07-03T06:24:15;14.80;;;7.03;;
68188;SDS011;55008;47.514;19.218;2022-07-03T06:26:44;12.70;;;7.00;;
68188;SDS011;55008;47.514;19.218;2022-07-03T06:29:14;13.63;;;6.93;;
68188;SDS011;55008;47.514;19.218;2022-07-03T06:31:44;15.25;;;6.78;;
68188;SDS011;55008;47.514;19.218;2022-07-03T06:34:12;14.27;;;7.07;;
68188;SDS011;55008;47.514;19.218;2022-07-03T06:36:41;12.43;;;6.75;;
68188;SDS011;55008;47.514;19.218;2022-07-03T06:39:10;12.40;;;6.45;;
68188;SDS011;55008;47.514;19.218;2022-07-03T06:41:40;15.60;;;6.90;;
68188;SDS011;55008;47.514;19.218;2022-07-03T06:44:10;12.65;;;6.80;;
68188;SDS011;55008;47.514;19.218;2022-07-03T06:46:48;12.50;;;6.55;;
68188;SDS011;55008;47.514;19.218;2022-07-03T06:49:20;12.77;;;7.00;;
68188;SDS011;55008;47.514;19.218;2022-07-03T06:51:50;12.02;;;6.30;;
68188;SDS011;55008;47.514;19.218;2022-07-03T06:54:19;11.60;;;6.35;;
68188;SDS011;55008;47.514;19.218;2022-07-03T06:56:50;13.30;;;6.60;;
68188;SDS011;55008;47.514;19.218;2022-07-03T06:59:23;12.63;;;7.10;;
68188;SDS011;55008;47.514;19.218;2022-07-03T07:01:55;14.13;;;6.70;;
68188;SDS011;55008;47.514;19.218;2022-07-03T07:04:25;14.05;;;6.80;;
68188;SDS011;55008;47.514;19.218;2022-07-03T07:06:53;12.20;;;6.45;;
68188;SDS011;55008;47.514;19.218;2022-07-03T07:09:22;13.13;;;6.55;;
68188;SDS011;55008;47.514;19.218;2022-07-03T07:11:51;14.23;;;7.05;;
68188;SDS011;55008;47.514;19.218;2022-07-03T07:14:21;11.68;;;6.63;;
68188;SDS011;55008;47.514;19.218;2022-07-03T07:16:52;13.57;;;6.60;;
68188;SDS011;55008;47.514;19.218;2022-07-03T07:19:20;12.48;;;6.57;;
68188;SDS011;55008;47.514;19.218;2022-07-03T07:21:51;14.20;;;6.47;;
68188;SDS011;55008;47.514;19.218;2022-07-03T07:24:21;13.00;;;6.57;;
68188;SDS011;55008;47.514;19.218;2022-07-03T07:26:53;13.70;;;6.60;;
68188;SDS011;55008;47.514;19.218;2022-07-03T07:29:22;12.32;;;6.45;;
68188;SDS011;55008;47.514;19.218;2022-07-03T07:31:51;13.23;;;6.65;;
68188;SDS011;55008;47.514;19.218;2022-07-03T07:34:20;12.25;;;6.70;;
68188;SDS011;55008;47.514;19.218;2022-07-03T07:36:52;12.50;;;6.82;;
68188;SDS011;55008;47.514;19.218;2022-07-03T07:39:21;12.93;;;6.85;;
68188;SDS011;55008;47.514;19.218;2022-07-03T07:41:50;12.40;;;6.65;;
68188;SDS011;55008;47.514;19.218;2022-07-03T07:44:20;12.18;;;6.53;;
68188;SDS011;55008;47.514;19.218;2022-07-03T07:46:49;13.93;;;6.53;;
68188;SDS011;55008;47.514;19.218;2022-07-03T07:49:20;13.80;;;6.55;;
68188;SDS011;55008;47.514;19.218;2022-07-03T07:51:50;11.18;;;6.28;;
68188;SDS011;55008;47.514;19.218;2022-07-03T07:54:20;13.57;;;6.33;;
68188;SDS011;55008;47.514;19.218;2022-07-03T07:56:48;12.60;;;6.53;;
68188;SDS011;55008;47.514;19.218;2022-07-03T07:59:17;12.30;;;6.60;;
68188;SDS011;55008;47.514;19.218;2022-07-03T08:01:47;13.25;;;6.70;;
68188;SDS011;55008;47.514;19.218;2022-07-03T08:04:34;12.63;;;6.38;;
68188;SDS011;55008;47.514;19.218;2022-07-03T08:07:20;11.85;;;6.70;;
68188;SDS011;55008;47.514;19.218;2022-07-03T08:09:50;13.55;;;6.55;;
68188;SDS011;55008;47.514;19.218;2022-07-03T08:12:20;11.02;;;6.30;;
68188;SDS011;55008;47.514;19.218;2022-07-03T08:14:48;15.23;;;6.50;;
68188;SDS011;55008;47.514;19.218;2022-07-03T08:17:18;14.00;;;6.35;;
68188;SDS011;55008;47.514;19.218;2022-07-03T08:19:49;13.40;;;6.20;;
68188;SDS011;55008;47.514;19.218;2022-07-03T08:22:21;15.95;;;6.60;;
68188;SDS011;55008;47.514;19.218;2022-07-03T08:24:56;12.35;;;6.50;;
68188;SDS011;55008;47.514;19.218;2022-07-03T08:27:25;14.95;;;6.20;;
68188;SDS011;55008;47.514;19.218;2022-07-03T08:29:53;11.23;;;6.15;;
68188;SDS011;55008;47.514;19.218;2022-07-03T08:32:26;10.73;;;6.10;;
68188;SDS011;55008;47.514;19.218;2022-07-03T08:34:56;13.02;;;6.15;;
68188;SDS011;55008;47.514;19.218;2022-07-03T08:37:25;12.13;;;6.35;;
68188;SDS011;55008;47.514;19.218;2022-07-03T08:39:59;13.43;;;6.10;;
68188;SDS011;55008;47.514;19.218;2022-07-03T08:42:32;11.70;;;6.13;;
68188;SDS011;55008;47.514;19.218;2022-07-03T08:45:03;12.52;;;6.13;;
68188;SDS011;55008;47.514;19.218;2022-07-03T08:47:37;13.10;;;6.30;;
68188;SDS011;55008;47.514;19.218;2022-07-03T08:50:08;13.02;;;6.65;;
68188;SDS011;55008;47.514;19.218;2022-07-03T08:52:38;12.68;;;6.00;;
68188;SDS011;55008;47.514;19.218;2022-07-03T08:55:09;13.18;;;5.88;;
68188;SDS011;55008;47.514;19.218;2022-07-03T08:57:39;14.23;;;6.33;;
68188;SDS011;55008;47.514;19.218;2022-07-03T09:00:10;14.93;;;5.97;;
68188;SDS011;55008;47.514;19.218;2022-07-03T09:02:42;11.60;;;6.03;;
68188;SDS011;55008;47.514;19.218;2022-07-03T09:05:13;13.02;;;6.03;;
68188;SDS011;55008;47.514;19.218;2022-07-03T09:07:45;14.95;;;5.93;;
68188;SDS011;55008;47.514;19.218;2022-07-03T09:10:15;12.73;;;5.67;;
68188;SDS011;55008;47.514;19.218;2022-07-03T09:12:45;10.88;;;5.18;;
68188;SDS011;55008;47.514;19.218;2022-07-03T09:15:15;11.02;;;5.70;;
68188;SDS011;55008;47.514;19.218;2022-07-03T09:17:59;11.85;;;6.13;;
68188;SDS011;55008;47.514;19.218;2022-07-03T09:20:29;12.73;;;5.90;;
68188;SDS011;55008;47.514;19.218;2022-07-03T09:23:11;12.88;;;5.70;;
68188;SDS011;55008;47.514;19.218;2022-07-03T09:25:51;13.93;;;6.20;;
68188;SDS011;55008;47.514;19.218;2022-07-03T09:28:40;12.38;;;5.88;;
68188;SDS011;55008;47.514;19.218;2022-07-03T09:31:18;12.93;;;5.57;;
68188;SDS011;55008;47.514;19.218;2022-07-03T09:33:58;12.50;;;5.50;;
68188;SDS011;55008;47.514;19.218;2022-07-03T09:36:46;11.32;;;5.63;;
68188;SDS011;55008;47.514;19.218;2022-07-03T09:39:16;11.13;;;5.20;;
68188;SDS011;55008;47.514;19.218;2022-07-03T09:41:52;11.13;;;5.60;;
68188;SDS011;55008;47.514;19.218;2022-07-03T09:44:28;12.18;;;5.43;;
68188;SDS011;55008;47.514;19.218;2022-07-03T09:47:06;10.80;;;5.65;;
68188;SDS011;55008;47.514;19.218;2022-07-03T09:49:50;14.40;;;5.75;;
68188;SDS011;55008;47.514;19.218;2022-07-03T09:52:29;10.80;;;5.72;;
68188;SDS011;55008;47.514;19.218;2022-07-03T09:55:10;12.05;;;5.15;;
68188;SDS011;55008;47.514;19.218;2022-07-03T09:57:57;12.40;;;5.00;;
68188;SDS011;55008;47.514;19.218;2022-07-03T10:00:28;10.68;;;5.03;;
68188;SDS011;55008;47.514;19.218;2022-07-03T10:02:59;10.23;;;5.20;;
68188;SDS011;55008;47.514;19.218;2022-07-03T10:05:38;11.82;;;5.13;;
68188;SDS011;55008;47.514;19.218;2022-07-03T10:08:09;9.43;;;4.88;;
68188;SDS011;55008;47.514;19.218;2022-07-03T10:10:44;10.40;;;5.18;;
68188;SDS011;55008;47.514;19.218;2022-07-03T10:13:17;11.25;;;5.43;;
68188;SDS011;55008;47.514;19.218;2022-07-03T10:15:47;10.05;;;5.10;;
68188;SDS011;55008;47.514;19.218;2022-07-03T10:18:20;10.05;;;5.03;;
68188;SDS011;55008;47.514;19.218;2022-07-03T10:21:06;10.88;;;5.03;;
68188;SDS011;55008;47.514;19.218;2022-07-03T10:23:37;13.48;;;5.32;;
68188;SDS011;55008;47.514;19.218;2022-07-03T10:26:12;12.07;;;4.95;;
68188;SDS011;55008;47.514;19.218;2022-07-03T10:28:45;10.60;;;4.78;;
68188;SDS011;55008;47.514;19.218;2022-07-03T10:31:16;10.93;;;5.35;;
68188;SDS011;55008;47.514;19.218;2022-07-03T10:33:52;10.20;;;5.05;;
68188;SDS011;55008;47.514;19.218;2022-07-03T10:36:28;9.85;;;5.10;;
68188;SDS011;55008;47.514;19.218;2022-07-03T10:39:01;13.23;;;5.60;;
68188;SDS011;55008;47.514;19.218;2022-07-03T10:41:36;9.82;;;4.90;;
68188;SDS011;55008;47.514;19.218;2022-07-03T10:44:25;10.13;;;4.70;;
68188;SDS011;55008;47.514;19.218;2022-07-03T10:50:09;12.43;;;5.15;;
68188;SDS011;55008;47.514;19.218;2022-07-03T10:52:45;9.98;;;4.45;;
68188;SDS011;55008;47.514;19.218;2022-07-03T10:55:16;9.52;;;4.65;;
68188;SDS011;55008;47.514;19.218;2022-07-03T11:00:54;10.85;;;4.82;;
68188;SDS011;55008;47.514;19.218;2022-07-03T11:06:20;11.20;;;4.70;;
68188;SDS011;55008;47.514;19.218;2022-07-03T11:09:04;16.35;;;4.97;;
68188;SDS011;55008;47.514;19.218;2022-07-03T11:11:40;11.02;;;4.70;;
68188;SDS011;55008;47.514;19.218;2022-07-03T11:14:25;10.45;;;4.80;;
68188;SDS011;55008;47.514;19.218;2022-07-03T11:19:50;10.95;;;4.72;;
68188;SDS011;55008;47.514;19.218;2022-07-03T11:22:43;11.95;;;5.00;;
68188;SDS011;55008;47.514;19.218;2022-07-03T11:25:21;11.40;;;4.95;;
68188;SDS011;55008;47.514;19.218;2022-07-03T11:27:59;11.13;;;5.18;;
68188;SDS011;55008;47.514;19.218;2022-07-03T11:30:32;12.93;;;4.95;;
68188;SDS011;55008;47.514;19.218;2022-07-03T11:33:05;14.45;;;5.00;;
68188;SDS011;55008;47.514;19.218;2022-07-03T11:35:47;14.68;;;4.60;;
68188;SDS011;55008;47.514;19.218;2022-07-03T11:38:24;10.35;;;4.70;;
68188;SDS011;55008;47.514;19.218;2022-07-03T11:40:59;10.05;;;4.88;;
68188;SDS011;55008;47.514;19.218;2022-07-03T11:43:28;15.32;;;4.85;;
68188;SDS011;55008;47.514;19.218;2022-07-03T11:45:57;16.23;;;5.60;;
68188;SDS011;55008;47.514;19.218;2022-07-03T11:48:26;10.38;;;5.20;;
68188;SDS011;55008;47.514;19.218;2022-07-03T11:50:59;12.45;;;4.95;;
68188;SDS011;55008;47.514;19.218;2022-07-03T11:53:30;10.32;;;5.10;;
68188;SDS011;55008;47.514;19.218;2022-07-03T11:56:02;10.10;;;4.77;;
68188;SDS011;55008;47.514;19.218;2022-07-03T11:58:43;11.48;;;5.20;;
68188;SDS011;55008;47.514;19.218;2022-07-03T12:01:27;12.25;;;5.10;;
68188;SDS011;55008;47.514;19.218;2022-07-03T12:04:02;12.20;;;5.50;;
68188;SDS011;55008;47.514;19.218;2022-07-03T12:06:36;14.70;;;5.32;;
68188;SDS011;55008;47.514;19.218;2022-07-03T12:09:15;9.77;;;4.80;;
68188;SDS011;55008;47.514;19.218;2022-07-03T12:11:58;11.13;;;4.80;;
68188;SDS011;55008;47.514;19.218;2022-07-03T12:14:36;11.23;;;4.90;;
68188;SDS011;55008;47.514;19.218;2022-07-03T12:17:07;11.63;;;5.18;;
68188;SDS011;55008;47.514;19.218;2022-07-03T12:19:40;10.70;;;4.82;;
68188;SDS011;55008;47.514;19.218;2022-07-03T12:22:14;11.07;;;4.70;;
68188;SDS011;55008;47.514;19.218;2022-07-03T12:24:57;13.73;;;4.47;;
68188;SDS011;55008;47.514;19.218;2022-07-03T12:27:32;12.25;;;4.68;;
68188;SDS011;55008;47.514;19.218;2022-07-03T12:30:04;12.13;;;4.80;;
68188;SDS011;55008;47.514;19.218;2022-07-03T12:32:39;8.95;;;4.57;;
68188;SDS011;55008;47.514;19.218;2022-07-03T12:35:08;11.38;;;4.43;;
68188;SDS011;55008;47.514;19.218;2022-07-03T12:37:37;10.38;;;4.55;;
68188;SDS011;55008;47.514;19.218;2022-07-03T12:40:12;9.35;;;4.20;;
68188;SDS011;55008;47.514;19.218;2022-07-03T12:42:43;9.35;;;3.90;;
68188;SDS011;55008;47.514;19.218;2022-07-03T12:45:13;10.10;;;3.67;;
68188;SDS011;55008;47.514;19.218;2022-07-03T12:47:44;9.48;;;3.55;;
68188;SDS011;55008;47.514;19.218;2022-07-03T12:50:13;10.90;;;3.90;;
68188;SDS011;55008;47.514;19.218;2022-07-03T12:52:51;10.90;;;4.13;;
68188;SDS011;55008;47.514;19.218;2022-07-03T12:55:22;11.63;;;3.85;;
68188;SDS011;55008;47.514;19.218;2022-07-03T12:58:11;9.43;;;3.90;;
68188;SDS011;55008;47.514;19.218;2022-07-03T13:00:59;10.35;;;3.88;;
68188;SDS011;55008;47.514;19.218;2022-07-03T13:03:32;13.30;;;3.95;;
68188;SDS011;55008;47.514;19.218;2022-07-03T13:06:12;10.65;;;4.20;;
68188;SDS011;55008;47.514;19.218;2022-07-03T13:08:48;11.05;;;4.03;;
68188;SDS011;55008;47.514;19.218;2022-07-03T13:11:25;10.13;;;4.03;;
68188;SDS011;55008;47.514;19.218;2022-07-03T13:14:04;10.57;;;3.90;;
68188;SDS011;55008;47.514;19.218;2022-07-03T13:16:39;9.77;;;4.03;;
68188;SDS011;55008;47.514;19.218;2022-07-03T13:19:10;11.48;;;4.10;;
68188;SDS011;55008;47.514;19.218;2022-07-03T13:21:47;8.75;;;4.00;;
68188;SDS011;55008;47.514;19.218;2022-07-03T13:24:19;10.50;;;4.10;;
68188;SDS011;55008;47.514;19.218;2022-07-03T13:26:50;10.75;;;3.97;;
68188;SDS011;55008;47.514;19.218;2022-07-03T13:29:23;11.93;;;4.28;;
68188;SDS011;55008;47.514;19.218;2022-07-03T13:31:58;11.23;;;3.90;;
68188;SDS011;55008;47.514;19.218;2022-07-03T13:34:29;10.43;;;3.97;;
68188;SDS011;55008;47.514;19.218;2022-07-03T13:36:58;10.48;;;3.90;;
68188;SDS011;55008;47.514;19.218;2022-07-03T13:39:35;13.63;;;4.10;;
68188;SDS011;55008;47.514;19.218;2022-07-03T13:42:06;11.60;;;3.92;;
68188;SDS011;55008;47.514;19.218;2022-07-03T13:44:39;13.25;;;3.85;;
68188;SDS011;55008;47.514;19.218;2022-07-03T13:47:08;8.88;;;3.20;;
68188;SDS011;55008;47.514;19.218;2022-07-03T13:49:37;11.40;;;3.83;;
68188;SDS011;55008;47.514;19.218;2022-07-03T13:52:06;11.43;;;3.35;;
68188;SDS011;55008;47.514;19.218;2022-07-03T13:54:37;10.55;;;3.60;;
68188;SDS011;55008;47.514;19.218;2022-07-03T13:57:06;8.52;;;2.90;;
68188;SDS011;55008;47.514;19.218;2022-07-03T13:59:36;8.38;;;3.35;;
68188;SDS011;55008;47.514;19.218;2022-07-03T14:02:07;10.10;;;3.30;;
68188;SDS011;55008;47.514;19.218;2022-07-03T14:04:36;19.33;;;3.45;;
68188;SDS011;55008;47.514;19.218;2022-07-03T14:07:07;12.32;;;3.22;;
68188;SDS011;55008;47.514;19.218;2022-07-03T14:09:36;11.07;;;3.20;;
68188;SDS011;55008;47.514;19.218;2022-07-03T14:12:05;10.25;;;3.30;;
68188;SDS011;55008;47.514;19.218;2022-07-03T14:14:35;16.30;;;3.30;;
68188;SDS011;55008;47.514;19.218;2022-07-03T14:17:10;12.18;;;3.55;;
68188;SDS011;55008;47.514;19.218;2022-07-03T14:19:40;9.15;;;3.35;;
68188;SDS011;55008;47.514;19.218;2022-07-03T14:22:11;11.00;;;3.28;;
68188;SDS011;55008;47.514;19.218;2022-07-03T14:24:42;10.85;;;3.30;;
68188;SDS011;55008;47.514;19.218;2022-07-03T14:27:11;12.02;;;3.25;;
68188;SDS011;55008;47.514;19.218;2022-07-03T14:30:00;9.85;;;3.30;;
68188;SDS011;55008;47.514;19.218;2022-07-03T14:32:54;9.75;;;3.30;;
68188;SDS011;55008;47.514;19.218;2022-07-03T14:35:23;14.27;;;3.20;;
68188;SDS011;55008;47.514;19.218;2022-07-03T14:37:53;11.50;;;2.90;;
68188;SDS011;55008;47.514;19.218;2022-07-03T14:40:23;9.40;;;3.05;;
68188;SDS011;55008;47.514;19.218;2022-07-03T14:42:51;9.88;;;2.95;;
68188;SDS011;55008;47.514;19.218;2022-07-03T14:45:20;10.07;;;2.97;;
68188;SDS011;55008;47.514;19.218;2022-07-03T14:47:48;9.07;;;2.90;;
68188;SDS011;55008;47.514;19.218;2022-07-03T14:50:18;6.80;;;2.53;;
68188;SDS011;55008;47.514;19.218;2022-07-03T14:52:47;8.90;;;2.80;;
68188;SDS011;55008;47.514;19.218;2022-07-03T14:55:16;9.68;;;2.90;;
68188;SDS011;55008;47.514;19.218;2022-07-03T14:57:47;9.43;;;2.58;;
68188;SDS011;55008;47.514;19.218;2022-07-03T15:00:23;8.02;;;2.70;;
68188;SDS011;55008;47.514;19.218;2022-07-03T15:03:02;7.90;;;2.80;;
68188;SDS011;55008;47.514;19.218;2022-07-03T15:05:35;8.55;;;2.58;;
68188;SDS011;55008;47.514;19.218;2022-07-03T15:08:11;10.27;;;2.60;;
68188;SDS011;55008;47.514;19.218;2022-07-03T15:10:49;10.57;;;2.90;;
68188;SDS011;55008;47.514;19.218;2022-07-03T15:13:22;7.85;;;2.63;;
68188;SDS011;55008;47.514;19.218;2022-07-03T15:15:52;9.00;;;2.88;;
68188;SDS011;55008;47.514;19.218;2022-07-03T15:18:22;14.27;;;2.80;;
68188;SDS011;55008;47.514;19.218;2022-07-03T15:20:53;8.73;;;2.67;;
68188;SDS011;55008;47.514;19.218;2022-07-03T15:23:24;11.75;;;2.80;;
68188;SDS011;55008;47.514;19.218;2022-07-03T15:25:58;12.55;;;2.80;;